Time;durP1;ratioP1;P1;durP2;ratioP2;P2;SDS_P1;SDS_P2;PMS_P1;PMS_P2;Temp;Humidity;BMP_temperature;BMP_pressure;BME280_temperature;BME280_humidity;BME280_pressure;Samples;Min_cycle;Max_cycle;Signal;HPM_P1;HPM_P2
2022/08/19 00:01:48;;;;;;;19.10;12.43;;;20.90;99.90;;;;;;5035676;28;20088;-57
2022/08/19 00:04:16;;;;;;;18.40;11.93;;;20.80;99.90;;;;;;5035429;28;20064;-57
2022/08/19 00:06:44;;;;;;;16.92;11.48;;;20.70;99.90;;;;;;5035320;28;20037;-57
2022/08/19 00:09:14;;;;;;;17.33;11.32;;;20.60;99.90;;;;;;5035692;28;20021;-57
2022/08/19 00:11:40;;;;;;;21.77;10.75;;;20.70;99.90;;;;;;5053648;28;20532;-57
2022/08/19 00:14:09;;;;;;;12.90;10.63;;;20.70;99.90;;;;;;5055260;28;20025;-57
2022/08/19 00:16:37;;;;;;;17.02;10.60;;;20.60;99.90;;;;;;5055305;28;20064;-57
2022/08/19 00:19:03;;;;;;;15.07;11.05;;;20.60;99.90;;;;;;5055310;28;20455;-57
2022/08/19 00:21:29;;;;;;;14.30;10.98;;;20.50;99.90;;;;;;5055264;28;20029;-57
2022/08/19 00:23:57;;;;;;;14.43;9.57;;;20.50;99.90;;;;;;5055071;28;20104;-57
2022/08/19 00:26:25;;;;;;;15.10;10.05;;;20.50;99.90;;;;;;5055044;28;20106;-57
2022/08/19 00:28:51;;;;;;;15.70;11.35;;;20.40;99.90;;;;;;5055000;28;20024;-57
2022/08/19 00:31:17;;;;;;;19.98;11.57;;;20.40;99.90;;;;;;5055089;28;20032;-57
2022/08/19 00:33:43;;;;;;;16.30;11.43;;;20.40;99.90;;;;;;5055499;28;20037;-57
2022/08/19 00:36:10;;;;;;;16.70;12.43;;;20.40;99.90;;;;;;5054852;28;20467;-57
2022/08/19 00:38:40;;;;;;;17.30;10.85;;;20.40;99.90;;;;;;5054865;28;20035;-57
2022/08/19 00:41:08;;;;;;;13.75;10.27;;;20.40;99.90;;;;;;5055084;28;20035;-57
2022/08/19 00:43:38;;;;;;;16.42;10.82;;;20.30;99.90;;;;;;5054824;28;20047;-57
2022/08/19 00:46:04;;;;;;;16.20;10.70;;;20.30;99.90;;;;;;5054852;28;20364;-57
2022/08/19 00:48:33;;;;;;;18.48;11.35;;;20.20;99.90;;;;;;5054548;28;20037;-57
2022/08/19 00:51:00;;;;;;;16.85;9.60;;;20.10;99.90;;;;;;5054725;28;20033;-57
2022/08/19 00:53:29;;;;;;;17.90;10.15;;;20.10;99.90;;;;;;5054651;28;20471;-57
2022/08/19 00:55:58;;;;;;;13.40;9.85;;;20.00;99.90;;;;;;5054670;28;20110;-57
2022/08/19 00:58:27;;;;;;;16.15;10.30;;;19.90;99.90;;;;;;5054613;28;20036;-57
2022/08/19 01:00:53;;;;;;;16.10;10.35;;;19.90;99.90;;;;;;5054608;28;20029;-57
2022/08/19 01:03:21;;;;;;;16.73;10.65;;;20.00;99.90;;;;;;5054886;28;20044;-57
2022/08/19 01:05:50;;;;;;;12.55;10.23;;;19.90;99.90;;;;;;5054611;28;20467;-57
2022/08/19 01:08:18;;;;;;;14.48;10.02;;;19.90;99.90;;;;;;5054372;28;20033;-57
2022/08/19 01:10:48;;;;;;;19.65;10.50;;;19.90;99.90;;;;;;5043516;28;20025;-57
2022/08/19 01:13:18;;;;;;;18.25;11.95;;;19.90;99.90;;;;;;5034587;28;20029;-57
2022/08/19 01:15:49;;;;;;;13.65;10.45;;;20.00;99.90;;;;;;5034349;28;20035;-57
2022/08/19 01:18:17;;;;;;;14.45;10.40;;;19.80;99.90;;;;;;5049641;28;20120;-57
2022/08/19 01:20:43;;;;;;;18.38;11.18;;;19.80;99.90;;;;;;5034559;28;20067;-57
2022/08/19 01:23:10;;;;;;;20.83;11.30;;;19.80;99.90;;;;;;5034560;28;20033;-57
2022/08/19 01:25:51;;;;;;;20.17;10.30;;;19.80;99.90;;;;;;5034390;28;20033;-57
2022/08/19 01:28:25;;;;;;;15.82;10.43;;;19.80;99.90;;;;;;5034479;28;20485;-57
2022/08/19 01:30:52;;;;;;;16.02;10.80;;;19.90;99.90;;;;;;5034596;28;20033;-57
2022/08/19 01:33:19;;;;;;;17.15;11.15;;;19.80;99.90;;;;;;5034348;28;20030;-57
2022/08/19 01:35:45;;;;;;;14.38;10.75;;;19.80;99.90;;;;;;5034067;28;20371;-57
2022/08/19 01:38:22;;;;;;;18.45;11.00;;;19.90;99.90;;;;;;5034328;28;20048;-57
2022/08/19 01:40:48;;;;;;;18.92;10.70;;;19.80;99.90;;;;;;5034398;28;20138;-57
2022/08/19 01:43:15;;;;;;;13.90;9.98;;;19.80;99.90;;;;;;5034092;28;20080;-57
2022/08/19 01:45:41;;;;;;;14.05;9.88;;;19.80;99.90;;;;;;5034582;28;20478;-57
2022/08/19 01:48:08;;;;;;;18.08;10.27;;;19.80;99.90;;;;;;5033987;28;20041;-57
2022/08/19 01:50:34;;;;;;;21.85;11.77;;;19.70;99.90;;;;;;5034211;28;20090;-57
2022/08/19 01:53:03;;;;;;;18.65;10.68;;;19.80;99.90;;;;;;5033015;28;20021;-57
2022/08/19 01:55:29;;;;;;;16.80;10.38;;;19.80;99.90;;;;;;5034317;28;20128;-57
2022/08/19 01:57:59;;;;;;;21.00;10.85;;;19.90;99.90;;;;;;5033889;28;20029;-57
2022/08/19 02:00:29;;;;;;;17.30;10.82;;;19.80;99.90;;;;;;5034046;28;20116;-57
2022/08/19 02:02:56;;;;;;;15.60;10.13;;;19.70;99.90;;;;;;5034006;28;20175;-57
2022/08/19 02:05:22;;;;;;;19.73;10.15;;;19.70;99.90;;;;;;5034131;28;20063;-57
2022/08/19 02:07:48;;;;;;;16.77;10.52;;;19.60;99.90;;;;;;5033894;28;20426;-57
2022/08/19 02:10:21;;;;;;;17.77;11.20;;;19.60;99.90;;;;;;5040449;28;20021;-57
2022/08/19 02:12:49;;;;;;;16.73;10.68;;;19.60;99.90;;;;;;5053827;28;20026;-57
2022/08/19 02:15:16;;;;;;;14.10;10.25;;;19.50;99.90;;;;;;5053788;28;20482;-57
2022/08/19 02:17:42;;;;;;;17.13;10.55;;;19.50;99.90;;;;;;5053770;28;20033;-57
2022/08/19 02:20:08;;;;;;;16.55;9.90;;;19.50;99.90;;;;;;5054313;28;20031;-57
2022/08/19 02:22:35;;;;;;;14.93;10.23;;;19.50;99.90;;;;;;5057546;28;20104;-57
2022/08/19 02:25:01;;;;;;;16.83;10.45;;;19.50;99.90;;;;;;5057567;28;20464;-57
2022/08/19 02:27:27;;;;;;;16.95;9.85;;;19.40;99.90;;;;;;5057483;28;20032;-57
2022/08/19 02:29:53;;;;;;;13.18;10.45;;;19.40;99.90;;;;;;5057294;28;20024;-57
2022/08/19 02:32:20;;;;;;;14.85;9.40;;;19.40;99.90;;;;;;5057499;28;20025;-57
2022/08/19 02:34:46;;;;;;;15.40;10.88;;;19.30;99.90;;;;;;5057294;28;20029;-57
2022/08/19 02:39:58;;;;;;;14.20;10.38;;;19.30;99.90;;;;;;5057206;28;20059;-57
2022/08/19 02:42:24;;;;;;;13.88;10.32;;;19.40;99.90;;;;;;5057056;28;20037;-57
2022/08/19 02:44:51;;;;;;;18.52;10.55;;;19.30;99.90;;;;;;5057122;28;20036;-57
2022/08/19 02:47:18;;;;;;;15.95;9.60;;;19.30;99.90;;;;;;5056950;28;20386;-57
2022/08/19 02:49:45;;;;;;;13.82;9.07;;;19.40;99.90;;;;;;5056897;28;20067;-57
2022/08/19 02:52:11;;;;;;;14.07;10.75;;;19.30;99.90;;;;;;5056940;28;20033;-57
2022/08/19 02:54:38;;;;;;;16.58;10.45;;;19.20;99.90;;;;;;5056926;28;20524;-57
2022/08/19 02:57:05;;;;;;;15.43;9.82;;;19.20;99.90;;;;;;5072094;28;20068;-57
2022/08/19 02:59:32;;;;;;;13.80;10.32;;;19.10;99.90;;;;;;5057059;28;20119;-57
2022/08/19 03:01:58;;;;;;;14.82;9.52;;;19.20;99.90;;;;;;5056747;28;20075;-57
2022/08/19 03:04:24;;;;;;;18.65;9.57;;;19.20;99.90;;;;;;5056681;28;20475;-57
2022/08/19 03:06:51;;;;;;;13.40;9.50;;;19.10;99.90;;;;;;5056702;28;20040;-57
2022/08/19 03:09:19;;;;;;;12.38;8.85;;;19.00;99.90;;;;;;5056813;28;20079;-57
2022/08/19 03:11:45;;;;;;;13.27;9.82;;;19.00;99.90;;;;;;5037397;28;20040;-57
2022/08/19 03:14:12;;;;;;;16.77;9.77;;;18.90;99.90;;;;;;5036695;28;20108;-57
2022/08/19 03:16:48;;;;;;;18.63;10.20;;;18.90;99.90;;;;;;5036468;28;20021;-57
2022/08/19 03:19:16;;;;;;;15.55;9.25;;;18.90;99.90;;;;;;5036710;28;20416;-57
2022/08/19 03:21:46;;;;;;;15.98;9.30;;;18.80;99.90;;;;;;5036578;28;20051;-57
2022/08/19 03:24:13;;;;;;;15.95;9.00;;;18.80;99.90;;;;;;5036420;28;20108;-57
2022/08/19 03:26:44;;;;;;;12.18;8.75;;;18.80;99.90;;;;;;5036292;28;20037;-57
2022/08/19 03:29:11;;;;;;;15.23;8.77;;;18.80;99.90;;;;;;5036603;28;20092;-57
2022/08/19 03:31:38;;;;;;;15.40;9.60;;;18.80;99.90;;;;;;5036118;28;20029;-57
2022/08/19 03:34:05;;;;;;;12.93;8.30;;;18.80;99.90;;;;;;5036272;28;20033;-57
2022/08/19 03:36:31;;;;;;;13.15;8.88;;;18.70;99.90;;;;;;5051484;28;20475;-57
2022/08/19 03:38:59;;;;;;;12.73;8.80;;;18.70;99.90;;;;;;5036071;28;20072;-57
2022/08/19 03:41:33;;;;;;;11.40;8.85;;;18.60;99.90;;;;;;5036057;28;20029;-57
2022/08/19 03:43:59;;;;;;;15.88;9.23;;;18.60;99.90;;;;;;5036098;28;20048;-57
2022/08/19 03:46:29;;;;;;;13.17;8.57;;;18.60;99.90;;;;;;5035772;28;20026;-57
2022/08/19 03:48:57;;;;;;;14.73;9.02;;;18.70;99.90;;;;;;5035780;28;20280;-57
2022/08/19 03:51:24;;;;;;;9.30;8.20;;;18.70;99.90;;;;;;5035980;28;20403;-57
2022/08/19 03:53:51;;;;;;;13.57;9.57;;;18.70;99.90;;;;;;5035829;28;20021;-57
2022/08/19 03:56:18;;;;;;;15.73;9.18;;;18.60;99.90;;;;;;5035997;28;20432;-57
2022/08/19 03:58:44;;;;;;;13.05;9.38;;;18.70;99.90;;;;;;5035580;28;20537;-57
2022/08/19 04:01:12;;;;;;;11.07;8.73;;;18.70;99.90;;;;;;5035656;28;20558;-57
2022/08/19 04:03:39;;;;;;;13.45;9.27;;;18.70;99.90;;;;;;5035657;28;20021;-57
2022/08/19 04:06:30;;;;;;;21.38;10.30;;;18.70;99.90;;;;;;5035525;28;20021;-57
2022/08/19 04:08:58;;;;;;;24.38;11.50;;;18.60;99.90;;;;;;5035811;28;20029;-57
2022/08/19 04:11:31;;;;;;;19.55;11.25;;;18.80;99.90;;;;;;5051679;28;20032;-57
2022/08/19 04:13:57;;;;;;;18.17;10.30;;;18.80;99.90;;;;;;5055232;28;20405;-57
2022/08/19 04:16:28;;;;;;;15.95;10.00;;;18.80;99.90;;;;;;5055118;28;20329;-57
2022/08/19 04:18:55;;;;;;;19.92;9.75;;;18.90;99.90;;;;;;5055406;28;20028;-57
2022/08/19 04:21:24;;;;;;;17.70;10.30;;;18.90;99.90;;;;;;5055201;28;20116;-57
2022/08/19 04:23:50;;;;;;;17.80;10.15;;;19.00;99.90;;;;;;5055213;28;20036;-57
2022/08/19 04:26:20;;;;;;;19.20;10.70;;;18.90;99.90;;;;;;5055197;28;20059;-57
2022/08/19 04:28:47;;;;;;;18.52;10.02;;;18.80;99.90;;;;;;5055184;28;20052;-57
2022/08/19 04:31:19;;;;;;;22.92;11.40;;;18.80;99.90;;;;;;5054976;28;20109;-57
2022/08/19 04:33:45;;;;;;;26.73;10.90;;;18.90;99.90;;;;;;5055058;28;20025;-57
2022/08/19 04:36:20;;;;;;;22.15;11.77;;;19.00;99.90;;;;;;5054810;28;20120;-57
2022/08/19 04:38:48;;;;;;;17.35;10.52;;;19.10;99.90;;;;;;5054932;28;20094;-57
2022/08/19 04:43:59;;;;;;;20.60;11.43;;;19.20;99.90;;;;;;5054381;28;20035;-57
2022/08/19 04:46:25;;;;;;;21.13;11.43;;;19.30;99.90;;;;;;5054876;28;20429;-57
2022/08/19 04:48:53;;;;;;;19.15;10.88;;;19.20;99.90;;;;;;5054547;28;20072;-57
2022/08/19 04:51:20;;;;;;;18.05;10.23;;;19.40;99.90;;;;;;5054774;28;20087;-57
2022/08/19 04:53:46;;;;;;;15.30;9.63;;;19.40;99.90;;;;;;5054899;28;20563;-57
2022/08/19 04:56:15;;;;;;;17.00;10.38;;;19.50;99.90;;;;;;5054580;28;20108;-57
2022/08/19 04:58:42;;;;;;;15.30;10.48;;;19.50;99.90;;;;;;5054488;28;20044;-57
2022/08/19 05:01:13;;;;;;;22.73;11.07;;;19.70;99.90;;;;;;5054537;28;20053;-57
2022/08/19 05:03:39;;;;;;;21.70;10.77;;;19.80;99.90;;;;;;5054202;28;20382;-57
2022/08/19 05:06:08;;;;;;;18.38;9.70;;;19.90;99.90;;;;;;5054297;28;20074;-57
2022/08/19 05:08:36;;;;;;;23.08;10.82;;;19.90;99.90;;;;;;5053189;28;20379;-57
2022/08/19 05:11:10;;;;;;;16.00;10.07;;;20.00;99.90;;;;;;5041268;28;20068;-57
2022/08/19 05:13:37;;;;;;;14.43;9.65;;;20.00;99.90;;;;;;5034291;28;20100;-57
2022/08/19 05:16:04;;;;;;;16.10;10.25;;;20.10;99.90;;;;;;5034460;28;20027;-57
2022/08/19 05:24:01;;;;;;;16.77;11.25;;;20.30;99.90;;;;;;5034008;28;20356;-57
2022/08/19 05:26:27;;;;;;;20.08;10.20;;;20.30;99.90;;;;;;5034221;28;20530;-57
2022/08/19 05:28:54;;;;;;;20.35;10.73;;;20.30;99.90;;;;;;5034519;28;20118;-57
2022/08/19 05:31:21;;;;;;;26.63;10.98;;;20.50;99.90;;;;;;5034185;28;20520;-57
2022/08/19 05:33:47;;;;;;;20.85;9.98;;;20.60;99.90;;;;;;5034201;28;20088;-57
2022/08/19 05:36:13;;;;;;;18.70;9.38;;;20.80;99.90;;;;;;5061345;28;20083;-57
2022/08/19 05:38:39;;;;;;;19.60;10.10;;;21.00;99.90;;;;;;5036045;28;20094;-57
2022/08/19 05:41:14;;;;;;;21.35;9.07;;;21.10;99.90;;;;;;5042933;28;20033;-57
2022/08/19 05:43:41;;;;;;;20.85;9.40;;;21.20;99.90;;;;;;5053015;28;20060;-57
2022/08/19 05:46:08;;;;;;;25.40;10.48;;;21.30;99.90;;;;;;5040041;28;20068;-57
2022/08/19 05:48:35;;;;;;;21.67;10.07;;;21.50;99.90;;;;;;5034652;28;20042;-57
2022/08/19 05:51:08;;;;;;;17.20;8.85;;;21.60;99.90;;;;;;5042800;28;20048;-57
2022/08/19 05:53:34;;;;;;;20.05;11.18;;;21.70;99.90;;;;;;5054174;28;20459;-57
2022/08/19 05:56:09;;;;;;;35.38;12.63;;;21.90;99.90;;;;;;5055737;28;20025;-57
2022/08/19 05:58:36;;;;;;;37.17;11.50;;;22.10;99.90;;;;;;5056671;28;20032;-57
2022/08/19 06:01:05;;;;;;;39.85;11.18;;;22.20;99.90;;;;;;5053852;28;20040;-57
2022/08/19 06:03:37;;;;;;;31.60;12.07;;;22.30;99.90;;;;;;5054832;28;20559;-57
2022/08/19 06:06:08;;;;;;;23.27;11.10;;;22.50;99.90;;;;;;5057569;28;20541;-57
2022/08/19 06:08:39;;;;;;;30.10;10.95;;;22.70;99.90;;;;;;5057491;28;20029;-57
2022/08/19 06:11:33;;;;;;;22.63;11.55;;;22.90;99.90;;;;;;5044363;28;20030;-57
2022/08/19 06:14:11;;;;;;;30.40;14.35;;;23.00;99.90;;;;;;5037468;28;20439;-57
2022/08/19 06:16:44;;;;;;;36.22;15.50;;;23.20;99.90;;;;;;5037819;28;20037;-57
2022/08/19 06:19:15;;;;;;;35.40;14.30;;;23.40;99.90;;;;;;5068410;28;20387;-57
2022/08/19 06:21:44;;;;;;;26.70;13.38;;;23.70;99.90;;;;;;5037643;28;20033;-57
2022/08/19 06:24:12;;;;;;;27.88;12.93;;;23.90;99.60;;;;;;5037300;28;20056;-57
2022/08/19 06:26:40;;;;;;;26.23;11.88;;;24.00;99.90;;;;;;5037287;28;20034;-57
2022/08/19 06:29:08;;;;;;;25.52;11.88;;;24.20;99.90;;;;;;5037592;28;20021;-57
2022/08/19 06:31:36;;;;;;;22.55;11.35;;;24.40;99.20;;;;;;5037420;28;20034;-57
2022/08/19 06:34:04;;;;;;;30.25;11.88;;;24.60;97.60;;;;;;5037545;28;20029;-57
2022/08/19 06:36:37;;;;;;;23.05;10.93;;;24.80;95.00;;;;;;5037212;28;20140;-57
2022/08/19 06:39:12;;;;;;;26.27;11.05;;;25.10;94.20;;;;;;5036996;28;20036;-57
2022/08/19 06:41:41;;;;;;;28.55;11.13;;;25.30;94.50;;;;;;5037144;28;20029;-57
2022/08/19 06:44:14;;;;;;;28.10;11.55;;;25.50;93.10;;;;;;5035627;28;20253;-57
2022/08/19 06:46:41;;;;;;;38.72;11.02;;;25.70;92.30;;;;;;5036584;28;20025;-58
2022/08/19 06:49:10;;;;;;;34.45;11.38;;;25.90;92.30;;;;;;5036915;28;20036;-57
2022/08/19 06:51:36;;;;;;;26.33;9.60;;;26.10;90.20;;;;;;5042152;28;20032;-57
2022/08/19 06:54:02;;;;;;;24.77;10.00;;;26.40;88.70;;;;;;5044125;28;20029;-57
2022/08/19 06:56:36;;;;;;;24.80;11.88;;;26.70;90.10;;;;;;5038265;28;20021;-57
2022/08/19 06:59:10;;;;;;;23.02;11.18;;;27.00;90.70;;;;;;5037914;28;20040;-57
2022/08/19 07:01:40;;;;;;;25.50;10.73;;;27.20;88.20;;;;;;5038379;28;20032;-57
2022/08/19 07:04:08;;;;;;;24.33;11.30;;;27.30;83.20;;;;;;5049648;28;20032;-58
2022/08/19 07:06:36;;;;;;;26.92;10.93;;;27.50;83.70;;;;;;5052557;28;20029;-58
2022/08/19 07:09:04;;;;;;;25.35;11.07;;;27.80;83.40;;;;;;5056011;28;20074;-58
2022/08/19 07:11:32;;;;;;;29.92;11.68;;;28.00;81.30;;;;;;5056778;28;20025;-57
2022/08/19 07:13:59;;;;;;;26.85;11.30;;;27.90;80.80;;;;;;5053796;28;20048;-57
2022/08/19 07:16:25;;;;;;;23.95;10.48;;;28.30;79.80;;;;;;5056255;28;20029;-57
2022/08/19 07:18:51;;;;;;;26.15;11.25;;;28.60;77.20;;;;;;5051279;28;20082;-57
2022/08/19 07:21:24;;;;;;;30.75;11.68;;;28.80;75.80;;;;;;5054698;28;20037;-58
2022/08/19 07:23:51;;;;;;;24.75;10.38;;;29.20;75.40;;;;;;5049288;28;20063;-58
2022/08/19 07:26:22;;;;;;;25.55;11.13;;;29.30;71.90;;;;;;5056035;28;20025;-58
2022/08/19 07:28:49;;;;;;;21.75;10.73;;;29.40;70.20;;;;;;5054934;28;20106;-58
2022/08/19 07:31:19;;;;;;;39.72;11.93;;;29.60;70.10;;;;;;5055560;28;20057;-57
2022/08/19 07:33:47;;;;;;;28.95;11.15;;;29.60;69.10;;;;;;5050749;28;20053;-58
2022/08/19 07:36:16;;;;;;;24.15;10.15;;;29.60;69.00;;;;;;5050410;28;20094;-58
2022/08/19 07:38:45;;;;;;;28.55;10.57;;;29.90;70.50;;;;;;5052387;28;20193;-58
2022/08/19 07:41:13;;;;;;;30.30;11.85;;;30.40;68.10;;;;;;5044059;28;20037;-58
2022/08/19 07:43:40;;;;;;;26.20;10.40;;;30.80;65.60;;;;;;5054081;28;20036;-58
2022/08/19 07:46:06;;;;;;;22.80;10.63;;;31.20;67.30;;;;;;5055393;28;20057;-58
2022/08/19 07:48:33;;;;;;;23.33;9.93;;;31.60;63.80;;;;;;5054482;28;20121;-58
2022/08/19 07:51:02;;;;;;;22.40;9.50;;;31.60;61.50;;;;;;5048369;28;20080;-58
2022/08/19 07:53:30;;;;;;;28.92;9.38;;;32.00;60.70;;;;;;5056154;28;20029;-58
2022/08/19 07:55:59;;;;;;;19.67;8.23;;;32.20;60.00;;;;;;5056288;28;20029;-58
2022/08/19 07:58:27;;;;;;;20.50;8.38;;;32.50;56.70;;;;;;5047734;28;20068;-58
2022/08/19 08:00:53;;;;;;;28.10;10.15;;;32.80;55.00;;;;;;5036195;28;20031;-58
2022/08/19 08:09:10;;;;;;;24.52;10.75;;;33.00;56.30;;;;;;5050196;28;20386;-58
2022/08/19 08:09:11;;;;;;;23.38;10.05;;;33.20;53.90;;;;;;5047004;28;20033;-58
2022/08/19 08:11:48;;;;;;;24.17;9.57;;;33.40;53.30;;;;;;5052457;28;20356;-58
2022/08/19 08:14:26;;;;;;;26.83;9.10;;;33.50;52.20;;;;;;5046727;28;20135;-58
2022/08/19 08:16:52;;;;;;;20.13;9.07;;;33.80;53.50;;;;;;5047158;28;20025;-58
2022/08/19 08:19:21;;;;;;;26.38;9.40;;;33.90;52.20;;;;;;5035971;28;20470;-58
2022/08/19 08:21:49;;;;;;;21.10;8.07;;;33.90;51.60;;;;;;5044753;28;20497;-58
2022/08/19 08:24:16;;;;;;;17.52;7.32;;;34.00;51.00;;;;;;5035388;28;20041;-58
2022/08/19 08:26:43;;;;;;;15.43;6.57;;;34.10;50.20;;;;;;5051385;28;20050;-58
2022/08/19 08:29:12;;;;;;;16.30;7.05;;;34.20;51.10;;;;;;5049917;28;20032;-58
2022/08/19 08:31:43;;;;;;;22.52;6.85;;;34.20;51.10;;;;;;5051052;28;20017;-58
2022/08/19 08:34:11;;;;;;;21.92;7.95;;;34.00;51.80;;;;;;5052892;28;20037;-58
2022/08/19 08:36:44;;;;;;;13.00;6.18;;;33.90;51.30;;;;;;5049298;28;20035;-58
2022/08/19 08:39:29;;;;;;;13.90;6.72;;;33.50;52.00;;;;;;5047300;28;20104;-58
2022/08/19 08:42:13;;;;;;;19.00;7.07;;;33.40;55.20;;;;;;5038501;28;20090;-58
2022/08/19 08:44:53;;;;;;;30.00;11.63;;;33.80;53.30;;;;;;5042261;28;20109;-58
2022/08/19 08:47:22;;;;;;;15.48;6.70;;;33.90;51.80;;;;;;5043148;28;20034;-58
2022/08/19 08:49:59;;;;;;;24.02;8.10;;;34.50;50.70;;;;;;5048661;28;20071;-58
2022/08/19 08:52:27;;;;;;;15.70;6.80;;;34.50;46.60;;;;;;5049766;28;20032;-58
2022/08/19 08:54:57;;;;;;;23.58;7.70;;;34.50;45.10;;;;;;5053996;28;20025;-58
2022/08/19 08:57:34;;;;;;;16.33;6.30;;;35.00;45.40;;;;;;5054168;28;20372;-58
2022/08/19 09:00:05;;;;;;;23.35;7.03;;;35.40;44.00;;;;;;5054238;28;20029;-58
2022/08/19 09:02:32;;;;;;;16.58;7.78;;;35.70;43.60;;;;;;5054506;28;20367;-58
2022/08/19 09:04:58;;;;;;;25.30;9.27;;;36.00;43.60;;;;;;5053923;28;20032;-59
2022/08/19 09:07:30;;;;;;;14.48;6.80;;;36.30;42.50;;;;;;5054596;28;20486;-59
2022/08/19 09:10:14;;;;;;;19.40;7.10;;;36.80;42.60;;;;;;5054536;28;20035;-59
2022/08/19 09:13:18;;;;;;;22.77;7.07;;;36.80;41.00;;;;;;5054572;28;20473;-59
2022/08/19 09:16:13;;;;;;;17.20;7.65;;;37.20;42.30;;;;;;5053299;28;20501;-59
2022/08/19 09:18:57;;;;;;;22.90;6.88;;;37.20;40.30;;;;;;5054457;28;20437;-59
2022/08/19 09:21:25;;;;;;;17.80;7.25;;;37.60;41.20;;;;;;5053957;28;20060;-59
2022/08/19 09:23:51;;;;;;;27.45;7.53;;;37.40;39.60;;;;;;5053219;28;20155;-59
2022/08/19 09:26:21;;;;;;;19.42;6.72;;;37.70;41.60;;;;;;5054115;28;20057;-59
2022/08/19 09:28:50;;;;;;;21.92;7.90;;;38.20;41.30;;;;;;5050399;28;20035;-59
2022/08/19 09:31:20;;;;;;;19.85;7.50;;;38.00;39.20;;;;;;5049757;28;20031;-59
2022/08/19 09:33:47;;;;;;;26.17;7.78;;;37.70;39.50;;;;;;5041089;28;20029;-59
2022/08/19 09:36:16;;;;;;;21.58;7.55;;;37.20;40.40;;;;;;5053256;28;20044;-59
2022/08/19 09:38:44;;;;;;;25.73;8.95;;;37.20;40.60;;;;;;5041073;28;20102;-59
2022/08/19 09:41:17;;;;;;;20.80;7.38;;;36.80;41.70;;;;;;5056712;28;20406;-59
2022/08/19 09:43:48;;;;;;;23.17;8.02;;;36.80;43.00;;;;;;5059178;28;20367;-58
2022/08/19 09:46:20;;;;;;;23.52;8.30;;;36.80;43.90;;;;;;5060287;28;20114;-58
2022/08/19 09:48:51;;;;;;;28.52;11.98;;;36.30;43.50;;;;;;5057512;28;20045;-58
2022/08/19 09:51:23;;;;;;;41.05;16.80;;;35.80;44.60;;;;;;5052746;28;20497;-59
2022/08/19 09:53:50;;;;;;;50.45;16.30;;;35.50;46.30;;;;;;5059594;28;20026;-58
2022/08/19 09:56:19;;;;;;;29.65;14.75;;;35.40;46.90;;;;;;5048029;28;20029;-58
2022/08/19 09:58:46;;;;;;;28.30;12.10;;;35.40;47.20;;;;;;5039198;28;20114;-59
2022/08/19 10:01:18;;;;;;;40.95;11.02;;;35.10;47.30;;;;;;5039676;28;20033;-58
2022/08/19 10:03:48;;;;;;;30.13;10.65;;;34.90;44.90;;;;;;5039974;28;20061;-59
2022/08/19 10:06:14;;;;;;;39.30;9.10;;;34.60;45.30;;;;;;5052595;28;20028;-58
2022/08/19 10:08:40;;;;;;;26.67;9.05;;;34.10;45.20;;;;;;5060040;28;20063;-58
2022/08/19 10:11:06;;;;;;;24.60;9.10;;;33.80;46.30;;;;;;5059428;28;20146;-58
2022/08/19 10:13:34;;;;;;;26.52;10.32;;;33.80;48.40;;;;;;5059352;28;20033;-58
2022/08/19 10:16:07;;;;;;;27.17;8.75;;;33.80;46.00;;;;;;5059630;28;20021;-58
2022/08/19 10:18:34;;;;;;;19.20;8.52;;;33.90;46.50;;;;;;5059032;28;20381;-58
2022/08/19 10:21:28;;;;;;;23.75;7.68;;;34.10;45.40;;;;;;5059267;28;20050;-58
2022/08/19 10:23:57;;;;;;;22.63;6.40;;;34.30;43.40;;;;;;5059612;28;20577;-58
2022/08/19 10:26:29;;;;;;;30.17;7.17;;;34.80;43.90;;;;;;5058759;28;20033;-58
2022/08/19 10:28:56;;;;;;;30.00;8.40;;;35.10;41.40;;;;;;5058995;28;20043;-59
2022/08/19 10:31:26;;;;;;;34.30;10.30;;;35.20;42.60;;;;;;5058927;28;20032;-58
2022/08/19 10:33:57;;;;;;;24.40;7.47;;;35.40;42.20;;;;;;5058893;28;20056;-58
2022/08/19 10:36:26;;;;;;;34.85;7.82;;;35.80;42.40;;;;;;5058118;28;20021;-58
2022/08/19 10:38:56;;;;;;;35.17;9.05;;;35.80;41.50;;;;;;5058150;28;20029;-58
2022/08/19 10:41:24;;;;;;;29.30;8.90;;;35.80;43.20;;;;;;5055608;28;20123;-58
2022/08/19 10:43:54;;;;;;;28.98;7.32;;;36.00;42.00;;;;;;5054116;28;20024;-58
2022/08/19 10:46:21;;;;;;;29.37;8.67;;;35.90;42.60;;;;;;5054369;28;20170;-59
2022/08/19 10:48:48;;;;;;;26.60;8.35;;;36.00;43.10;;;;;;4965231;28;2577933;-58
2022/08/19 10:54:00;;;;;;;14.95;6.90;;;36.00;43.30;;;;;;5057463;28;20025;-58
2022/08/19 10:59:13;;;;;;;20.30;6.93;;;35.70;43.80;;;;;;5056455;28;20059;-58
2022/08/19 11:01:41;;;;;;;23.00;6.57;;;35.90;44.10;;;;;;5056275;28;20032;-58
2022/08/19 11:04:09;;;;;;;32.78;7.25;;;35.80;44.10;;;;;;5056079;28;20051;-58
2022/08/19 11:06:41;;;;;;;17.48;7.13;;;35.80;43.60;;;;;;5056260;28;20029;-59
2022/08/19 11:09:13;;;;;;;24.73;8.00;;;35.80;45.80;;;;;;5056277;28;20032;-58
2022/08/19 11:11:40;;;;;;;25.80;7.38;;;35.90;43.60;;;;;;5050881;28;20026;-59
2022/08/19 11:14:19;;;;;;;21.20;6.90;;;35.70;44.30;;;;;;5036335;28;20030;-59
2022/08/19 11:16:48;;;;;;;24.58;7.07;;;36.30;43.00;;;;;;5035949;28;20089;-59
2022/08/19 11:19:18;;;;;;;17.30;6.57;;;36.50;41.90;;;;;;5036199;28;20430;-59
2022/08/19 11:21:47;;;;;;;18.55;6.93;;;36.10;42.60;;;;;;5036130;28;20100;-59
2022/08/19 11:24:20;;;;;;;24.58;7.57;;;36.20;43.70;;;;;;5035982;28;20115;-58
2022/08/19 11:26:48;;;;;;;29.67;8.57;;;35.70;43.40;;;;;;5036092;28;20647;-59
2022/08/19 11:29:17;;;;;;;24.92;7.28;;;35.70;44.10;;;;;;5036292;28;20021;-59
2022/08/19 11:31:46;;;;;;;27.30;8.25;;;35.40;44.60;;;;;;5035675;28;20045;-59
2022/08/19 11:34:16;;;;;;;23.60;7.45;;;35.40;44.10;;;;;;5036618;28;20041;-59
2022/08/19 11:36:44;;;;;;;22.27;7.63;;;35.10;44.90;;;;;;5036508;28;20704;-58
2022/08/19 11:39:13;;;;;;;32.63;7.80;;;34.90;45.40;;;;;;5035809;28;20402;-58
2022/08/19 11:41:40;;;;;;;20.83;6.95;;;34.60;44.70;;;;;;5035740;28;20033;-58
2022/08/19 11:44:07;;;;;;;26.52;7.38;;;34.10;45.70;;;;;;5043393;28;20384;-58
2022/08/19 11:46:35;;;;;;;32.22;7.00;;;33.80;45.90;;;;;;5053842;28;20032;-58
2022/08/19 11:49:02;;;;;;;19.35;6.55;;;33.20;45.90;;;;;;5047249;28;20376;-58
2022/08/19 11:51:32;;;;;;;25.85;6.20;;;33.00;46.90;;;;;;5037374;28;20029;-58
2022/08/19 11:53:59;;;;;;;22.67;6.22;;;32.90;46.60;;;;;;5034674;28;20040;-58
2022/08/19 11:56:27;;;;;;;19.60;6.35;;;32.90;47.10;;;;;;5054719;28;20398;-58
2022/08/19 11:58:56;;;;;;;20.05;5.43;;;33.00;46.70;;;;;;5054243;28;20082;-58
2022/08/19 12:01:25;;;;;;;18.63;6.50;;;33.30;47.10;;;;;;5042470;28;20037;-58
2022/08/19 12:03:52;;;;;;;20.20;5.85;;;33.30;45.50;;;;;;5043858;28;20029;-58
2022/08/19 12:06:27;;;;;;;27.35;7.03;;;33.50;45.60;;;;;;5049025;28;20036;-58
2022/08/19 12:08:53;;;;;;;20.67;6.60;;;33.40;44.60;;;;;;5035338;28;20029;-58
2022/08/19 12:11:20;;;;;;;21.00;6.82;;;33.20;45.50;;;;;;5044084;28;20405;-58
2022/08/19 12:13:46;;;;;;;29.65;6.80;;;33.10;45.60;;;;;;5044403;28;20040;-58
2022/08/19 12:16:20;;;;;;;23.25;5.45;;;32.90;46.00;;;;;;5051179;28;20248;-58
2022/08/19 12:18:46;;;;;;;24.65;5.97;;;32.60;46.20;;;;;;5048823;28;20061;-58
2022/08/19 12:21:17;;;;;;;13.73;4.82;;;32.40;47.40;;;;;;5050036;28;20157;-58
2022/08/19 12:23:45;;;;;;;21.65;6.20;;;32.60;48.40;;;;;;5045900;28;20036;-58
2022/08/19 12:26:11;;;;;;;18.48;5.70;;;33.10;48.70;;;;;;5046434;28;20096;-58
2022/08/19 12:28:38;;;;;;;21.27;5.25;;;33.60;47.80;;;;;;5035134;28;20069;-58
2022/08/19 12:31:05;;;;;;;16.73;5.22;;;33.80;47.20;;;;;;5034631;28;20068;-58
2022/08/19 12:33:32;;;;;;;21.73;6.95;;;33.70;46.40;;;;;;5034740;28;20024;-58
2022/08/19 12:36:05;;;;;;;18.90;5.47;;;33.70;46.80;;;;;;5034615;28;20026;-58
2022/08/19 12:38:32;;;;;;;25.73;6.20;;;33.60;47.40;;;;;;5034145;28;20037;-58
2022/08/19 12:40:58;;;;;;;13.25;5.68;;;33.60;47.00;;;;;;5034704;28;20064;-58
2022/08/19 12:43:24;;;;;;;16.77;6.30;;;33.40;47.60;;;;;;5034460;28;20482;-58
2022/08/19 12:45:50;;;;;;;24.45;6.07;;;33.30;47.30;;;;;;5033706;28;20064;-58
2022/08/19 12:48:16;;;;;;;19.58;6.60;;;33.20;47.30;;;;;;5034397;28;20492;-58
2022/08/19 12:50:47;;;;;;;23.90;6.57;;;32.90;48.30;;;;;;5040403;28;20060;-58
2022/08/19 12:53:14;;;;;;;20.27;6.50;;;32.60;48.60;;;;;;5053967;28;20028;-58
2022/08/19 12:55:40;;;;;;;19.17;6.20;;;32.30;50.30;;;;;;5045723;28;20067;-58
2022/08/19 12:58:06;;;;;;;22.98;6.80;;;32.10;50.80;;;;;;5041229;28;20437;-58
2022/08/19 13:00:32;;;;;;;19.33;6.10;;;31.90;50.70;;;;;;5050214;28;20040;-58